sensor_id;sensor_type;location;lat;lon;timestamp;P1;durP1;ratioP1;P2;durP2;ratioP2
38683;SDS011;24910;53.248;-6.134;2023-01-29T00:00:25;7.75;;;4.32;;
38683;SDS011;24910;53.248;-6.134;2023-01-29T00:02:55;7.53;;;3.95;;
38683;SDS011;24910;53.248;-6.134;2023-01-29T00:05:26;7.75;;;3.92;;
38683;SDS011;24910;53.248;-6.134;2023-01-29T00:07:55;5.45;;;3.92;;
38683;SDS011;24910;53.248;-6.134;2023-01-29T00:10:24;6.90;;;3.63;;
38683;SDS011;24910;53.248;-6.134;2023-01-29T00:12:54;6.68;;;3.80;;
38683;SDS011;24910;53.248;-6.134;2023-01-29T00:15:23;4.95;;;3.30;;
38683;SDS011;24910;53.248;-6.134;2023-01-29T00:17:52;6.20;;;3.60;;
38683;SDS011;24910;53.248;-6.134;2023-01-29T00:20:21;5.35;;;3.55;;
38683;SDS011;24910;53.248;-6.134;2023-01-29T00:22:51;6.20;;;3.40;;
38683;SDS011;24910;53.248;-6.134;2023-01-29T00:25:20;4.93;;;3.00;;
38683;SDS011;24910;53.248;-6.134;2023-01-29T00:27:50;4.15;;;3.10;;
38683;SDS011;24910;53.248;-6.134;2023-01-29T00:30:19;6.45;;;3.30;;
38683;SDS011;24910;53.248;-6.134;2023-01-29T00:32:49;5.13;;;3.10;;
38683;SDS011;24910;53.248;-6.134;2023-01-29T00:35:20;4.60;;;3.28;;
38683;SDS011;24910;53.248;-6.134;2023-01-29T00:37:49;5.22;;;3.67;;
38683;SDS011;24910;53.248;-6.134;2023-01-29T00:40:19;7.32;;;3.42;;
38683;SDS011;24910;53.248;-6.134;2023-01-29T00:42:50;5.95;;;3.30;;
38683;SDS011;24910;53.248;-6.134;2023-01-29T00:45:37;4.57;;;3.13;;
38683;SDS011;24910;53.248;-6.134;2023-01-29T00:48:06;5.20;;;2.90;;
38683;SDS011;24910;53.248;-6.134;2023-01-29T00:50:35;4.10;;;2.35;;
38683;SDS011;24910;53.248;-6.134;2023-01-29T00:53:05;6.22;;;2.75;;
38683;SDS011;24910;53.248;-6.134;2023-01-29T00:55:35;4.25;;;2.70;;
38683;SDS011;24910;53.248;-6.134;2023-01-29T00:58:04;3.92;;;2.20;;
38683;SDS011;24910;53.248;-6.134;2023-01-29T01:00:33;5.47;;;3.05;;
38683;SDS011;24910;53.248;-6.134;2023-01-29T01:03:02;7.55;;;3.00;;
38683;SDS011;24910;53.248;-6.134;2023-01-29T01:05:33;5.35;;;2.92;;
38683;SDS011;24910;53.248;-6.134;2023-01-29T01:08:03;5.95;;;3.90;;
38683;SDS011;24910;53.248;-6.134;2023-01-29T01:10:59;8.27;;;4.27;;
38683;SDS011;24910;53.248;-6.134;2023-01-29T01:13:29;7.68;;;4.43;;
38683;SDS011;24910;53.248;-6.134;2023-01-29T01:15:59;6.70;;;3.70;;
38683;SDS011;24910;53.248;-6.134;2023-01-29T01:18:28;9.35;;;3.15;;
38683;SDS011;24910;53.248;-6.134;2023-01-29T01:20:58;5.13;;;3.00;;
38683;SDS011;24910;53.248;-6.134;2023-01-29T01:23:27;5.30;;;2.60;;
38683;SDS011;24910;53.248;-6.134;2023-01-29T01:25:56;5.30;;;2.67;;
38683;SDS011;24910;53.248;-6.134;2023-01-29T01:28:27;3.30;;;2.30;;
38683;SDS011;24910;53.248;-6.134;2023-01-29T01:30:56;2.78;;;2.17;;
38683;SDS011;24910;53.248;-6.134;2023-01-29T01:33:25;4.50;;;2.95;;
38683;SDS011;24910;53.248;-6.134;2023-01-29T01:35:54;4.43;;;2.90;;
38683;SDS011;24910;53.248;-6.134;2023-01-29T01:38:28;5.63;;;2.60;;
38683;SDS011;24910;53.248;-6.134;2023-01-29T01:40:57;4.45;;;2.70;;
38683;SDS011;24910;53.248;-6.134;2023-01-29T01:43:27;5.00;;;2.50;;
38683;SDS011;24910;53.248;-6.134;2023-01-29T01:46:11;4.72;;;2.35;;
38683;SDS011;24910;53.248;-6.134;2023-01-29T01:48:41;5.32;;;2.50;;
38683;SDS011;24910;53.248;-6.134;2023-01-29T01:51:11;3.28;;;2.22;;
38683;SDS011;24910;53.248;-6.134;2023-01-29T01:53:43;3.38;;;2.30;;
38683;SDS011;24910;53.248;-6.134;2023-01-29T01:56:18;3.75;;;2.40;;
38683;SDS011;24910;53.248;-6.134;2023-01-29T01:58:53;2.63;;;2.00;;
38683;SDS011;24910;53.248;-6.134;2023-01-29T02:01:24;3.60;;;2.50;;
38683;SDS011;24910;53.248;-6.134;2023-01-29T02:03:56;3.22;;;2.28;;
38683;SDS011;24910;53.248;-6.134;2023-01-29T02:06:46;4.63;;;2.78;;
38683;SDS011;24910;53.248;-6.134;2023-01-29T02:09:35;4.43;;;2.83;;
38683;SDS011;24910;53.248;-6.134;2023-01-29T02:12:10;4.20;;;2.67;;
38683;SDS011;24910;53.248;-6.134;2023-01-29T02:14:42;6.15;;;2.72;;
38683;SDS011;24910;53.248;-6.134;2023-01-29T02:17:12;2.63;;;2.00;;
38683;SDS011;24910;53.248;-6.134;2023-01-29T02:19:46;4.68;;;2.60;;
38683;SDS011;24910;53.248;-6.134;2023-01-29T02:22:25;3.38;;;2.30;;
38683;SDS011;24910;53.248;-6.134;2023-01-29T02:28:35;6.38;;;2.28;;
38683;SDS011;24910;53.248;-6.134;2023-01-29T02:31:08;3.47;;;2.00;;
38683;SDS011;24910;53.248;-6.134;2023-01-29T02:33:47;3.50;;;2.00;;
38683;SDS011;24910;53.248;-6.134;2023-01-29T02:36:25;3.75;;;1.98;;
38683;SDS011;24910;53.248;-6.134;2023-01-29T02:39:00;2.97;;;1.70;;
38683;SDS011;24910;53.248;-6.134;2023-01-29T02:41:43;2.83;;;1.90;;
38683;SDS011;24910;53.248;-6.134;2023-01-29T02:44:21;2.88;;;2.05;;
38683;SDS011;24910;53.248;-6.134;2023-01-29T02:46:56;3.13;;;2.00;;
38683;SDS011;24910;53.248;-6.134;2023-01-29T02:49:31;5.05;;;1.77;;
38683;SDS011;24910;53.248;-6.134;2023-01-29T02:52:05;3.42;;;2.17;;
38683;SDS011;24910;53.248;-6.134;2023-01-29T02:54:42;6.28;;;2.63;;
38683;SDS011;24910;53.248;-6.134;2023-01-29T02:57:16;3.85;;;2.38;;
38683;SDS011;24910;53.248;-6.134;2023-01-29T02:59:50;4.57;;;2.47;;
38683;SDS011;24910;53.248;-6.134;2023-01-29T03:02:24;4.68;;;2.50;;
38683;SDS011;24910;53.248;-6.134;2023-01-29T03:04:59;3.42;;;2.63;;
38683;SDS011;24910;53.248;-6.134;2023-01-29T03:07:32;4.28;;;2.30;;
38683;SDS011;24910;53.248;-6.134;2023-01-29T03:10:25;5.63;;;2.10;;
38683;SDS011;24910;53.248;-6.134;2023-01-29T03:13:00;4.93;;;2.03;;
38683;SDS011;24910;53.248;-6.134;2023-01-29T03:15:37;2.25;;;1.80;;
38683;SDS011;24910;53.248;-6.134;2023-01-29T03:18:40;3.47;;;1.67;;
38683;SDS011;24910;53.248;-6.134;2023-01-29T03:21:14;2.63;;;1.50;;
38683;SDS011;24910;53.248;-6.134;2023-01-29T03:24:06;3.60;;;1.58;;
38683;SDS011;24910;53.248;-6.134;2023-01-29T03:26:57;1.50;;;1.27;;
38683;SDS011;24910;53.248;-6.134;2023-01-29T03:29:47;3.33;;;1.30;;
38683;SDS011;24910;53.248;-6.134;2023-01-29T03:32:51;2.25;;;1.58;;
38683;SDS011;24910;53.248;-6.134;2023-01-29T03:35:25;1.58;;;1.25;;
38683;SDS011;24910;53.248;-6.134;2023-01-29T03:38:04;1.85;;;1.40;;
38683;SDS011;24910;53.248;-6.134;2023-01-29T03:40:38;2.55;;;1.45;;
38683;SDS011;24910;53.248;-6.134;2023-01-29T03:43:17;2.45;;;1.60;;
38683;SDS011;24910;53.248;-6.134;2023-01-29T03:46:00;1.98;;;1.42;;
38683;SDS011;24910;53.248;-6.134;2023-01-29T03:48:36;2.60;;;1.70;;
38683;SDS011;24910;53.248;-6.134;2023-01-29T03:51:15;2.20;;;1.60;;
38683;SDS011;24910;53.248;-6.134;2023-01-29T03:53:50;2.13;;;1.70;;
38683;SDS011;24910;53.248;-6.134;2023-01-29T03:56:28;3.85;;;1.70;;
38683;SDS011;24910;53.248;-6.134;2023-01-29T03:59:10;4.70;;;2.00;;
38683;SDS011;24910;53.248;-6.134;2023-01-29T04:02:12;3.00;;;1.38;;
38683;SDS011;24910;53.248;-6.134;2023-01-29T04:04:49;4.47;;;1.38;;
38683;SDS011;24910;53.248;-6.134;2023-01-29T04:07:24;2.13;;;1.30;;
38683;SDS011;24910;53.248;-6.134;2023-01-29T04:10:02;5.15;;;1.08;;
38683;SDS011;24910;53.248;-6.134;2023-01-29T04:12:37;6.03;;;1.55;;
38683;SDS011;24910;53.248;-6.134;2023-01-29T04:15:13;2.10;;;0.88;;
38683;SDS011;24910;53.248;-6.134;2023-01-29T04:17:46;3.60;;;0.82;;
38683;SDS011;24910;53.248;-6.134;2023-01-29T04:20:31;3.15;;;0.88;;
38683;SDS011;24910;53.248;-6.134;2023-01-29T04:23:00;6.32;;;0.90;;
38683;SDS011;24910;53.248;-6.134;2023-01-29T04:25:30;5.05;;;0.80;;
38683;SDS011;24910;53.248;-6.134;2023-01-29T04:28:14;5.68;;;1.20;;
38683;SDS011;24910;53.248;-6.134;2023-01-29T04:30:51;6.25;;;0.93;;
38683;SDS011;24910;53.248;-6.134;2023-01-29T04:33:25;5.45;;;1.15;;
38683;SDS011;24910;53.248;-6.134;2023-01-29T04:36:05;2.72;;;0.80;;
38683;SDS011;24910;53.248;-6.134;2023-01-29T04:38:50;4.07;;;1.10;;
38683;SDS011;24910;53.248;-6.134;2023-01-29T04:41:30;6.40;;;0.85;;
38683;SDS011;24910;53.248;-6.134;2023-01-29T04:44:04;6.30;;;1.10;;
38683;SDS011;24910;53.248;-6.134;2023-01-29T04:46:45;4.80;;;0.90;;
38683;SDS011;24910;53.248;-6.134;2023-01-29T04:49:23;7.38;;;0.98;;
38683;SDS011;24910;53.248;-6.134;2023-01-29T04:52:01;3.83;;;0.90;;
38683;SDS011;24910;53.248;-6.134;2023-01-29T04:54:40;5.28;;;0.93;;
38683;SDS011;24910;53.248;-6.134;2023-01-29T04:57:22;3.33;;;1.30;;
38683;SDS011;24910;53.248;-6.134;2023-01-29T04:59:56;5.10;;;1.08;;
38683;SDS011;24910;53.248;-6.134;2023-01-29T05:02:31;4.03;;;1.25;;
38683;SDS011;24910;53.248;-6.134;2023-01-29T05:05:03;5.45;;;1.00;;
38683;SDS011;24910;53.248;-6.134;2023-01-29T05:07:36;2.63;;;1.13;;
38683;SDS011;24910;53.248;-6.134;2023-01-29T05:10:08;6.38;;;1.13;;
38683;SDS011;24910;53.248;-6.134;2023-01-29T05:12:39;3.72;;;0.82;;
38683;SDS011;24910;53.248;-6.134;2023-01-29T05:15:13;4.57;;;1.10;;
38683;SDS011;24910;53.248;-6.134;2023-01-29T05:17:46;3.33;;;0.90;;
38683;SDS011;24910;53.248;-6.134;2023-01-29T05:20:15;3.30;;;1.10;;
38683;SDS011;24910;53.248;-6.134;2023-01-29T05:22:46;2.03;;;1.00;;
38683;SDS011;24910;53.248;-6.134;2023-01-29T05:25:20;3.47;;;0.80;;
38683;SDS011;24910;53.248;-6.134;2023-01-29T05:27:51;3.88;;;0.90;;
38683;SDS011;24910;53.248;-6.134;2023-01-29T05:30:32;3.65;;;0.80;;
38683;SDS011;24910;53.248;-6.134;2023-01-29T05:33:03;4.55;;;1.20;;
38683;SDS011;24910;53.248;-6.134;2023-01-29T05:35:38;2.70;;;0.98;;
38683;SDS011;24910;53.248;-6.134;2023-01-29T05:38:09;3.03;;;1.10;;
38683;SDS011;24910;53.248;-6.134;2023-01-29T05:40:38;1.20;;;0.75;;
38683;SDS011;24910;53.248;-6.134;2023-01-29T05:43:12;1.65;;;0.77;;
38683;SDS011;24910;53.248;-6.134;2023-01-29T05:45:42;2.92;;;1.00;;
38683;SDS011;24910;53.248;-6.134;2023-01-29T05:48:20;3.47;;;0.80;;
38683;SDS011;24910;53.248;-6.134;2023-01-29T05:50:50;2.85;;;0.98;;
38683;SDS011;24910;53.248;-6.134;2023-01-29T05:53:20;2.05;;;0.70;;
38683;SDS011;24910;53.248;-6.134;2023-01-29T05:55:49;2.80;;;0.97;;
38683;SDS011;24910;53.248;-6.134;2023-01-29T05:58:18;1.95;;;0.90;;
38683;SDS011;24910;53.248;-6.134;2023-01-29T06:00:47;2.13;;;0.90;;
38683;SDS011;24910;53.248;-6.134;2023-01-29T06:03:17;5.20;;;1.08;;
38683;SDS011;24910;53.248;-6.134;2023-01-29T06:05:46;5.57;;;0.80;;
38683;SDS011;24910;53.248;-6.134;2023-01-29T06:08:15;0.88;;;0.70;;
38683;SDS011;24910;53.248;-6.134;2023-01-29T06:10:45;1.17;;;0.80;;
38683;SDS011;24910;53.248;-6.134;2023-01-29T06:13:14;2.25;;;0.90;;
38683;SDS011;24910;53.248;-6.134;2023-01-29T06:15:43;0.70;;;0.70;;
38683;SDS011;24910;53.248;-6.134;2023-01-29T06:18:13;1.23;;;0.80;;
38683;SDS011;24910;53.248;-6.134;2023-01-29T06:20:42;3.58;;;0.70;;
38683;SDS011;24910;53.248;-6.134;2023-01-29T06:23:11;1.30;;;0.70;;
38683;SDS011;24910;53.248;-6.134;2023-01-29T06:25:42;0.70;;;0.60;;
38683;SDS011;24910;53.248;-6.134;2023-01-29T06:28:12;1.17;;;0.82;;
38683;SDS011;24910;53.248;-6.134;2023-01-29T06:30:42;1.00;;;0.68;;
38683;SDS011;24910;53.248;-6.134;2023-01-29T06:33:11;0.90;;;0.70;;
38683;SDS011;24910;53.248;-6.134;2023-01-29T06:35:40;1.17;;;0.70;;
38683;SDS011;24910;53.248;-6.134;2023-01-29T06:38:09;2.55;;;0.70;;
38683;SDS011;24910;53.248;-6.134;2023-01-29T06:40:38;1.42;;;0.70;;
38683;SDS011;24910;53.248;-6.134;2023-01-29T06:43:07;1.55;;;0.63;;
38683;SDS011;24910;53.248;-6.134;2023-01-29T06:45:37;1.52;;;0.73;;
38683;SDS011;24910;53.248;-6.134;2023-01-29T06:48:13;2.30;;;0.73;;
38683;SDS011;24910;53.248;-6.134;2023-01-29T06:50:42;0.60;;;0.60;;
38683;SDS011;24910;53.248;-6.134;2023-01-29T06:53:11;0.55;;;0.55;;
38683;SDS011;24910;53.248;-6.134;2023-01-29T06:55:41;0.50;;;0.47;;
38683;SDS011;24910;53.248;-6.134;2023-01-29T06:58:10;1.05;;;0.50;;
38683;SDS011;24910;53.248;-6.134;2023-01-29T07:00:41;0.50;;;0.50;;
38683;SDS011;24910;53.248;-6.134;2023-01-29T07:03:10;1.13;;;0.73;;
38683;SDS011;24910;53.248;-6.134;2023-01-29T07:05:40;0.60;;;0.60;;
38683;SDS011;24910;53.248;-6.134;2023-01-29T07:08:09;0.50;;;0.50;;
38683;SDS011;24910;53.248;-6.134;2023-01-29T07:10:38;0.70;;;0.60;;
38683;SDS011;24910;53.248;-6.134;2023-01-29T07:13:07;0.60;;;0.60;;
38683;SDS011;24910;53.248;-6.134;2023-01-29T07:15:36;0.90;;;0.63;;
38683;SDS011;24910;53.248;-6.134;2023-01-29T07:18:06;1.30;;;0.70;;
38683;SDS011;24910;53.248;-6.134;2023-01-29T07:20:39;1.25;;;0.73;;
38683;SDS011;24910;53.248;-6.134;2023-01-29T07:23:09;0.60;;;0.60;;
38683;SDS011;24910;53.248;-6.134;2023-01-29T07:25:40;0.57;;;0.57;;
38683;SDS011;24910;53.248;-6.134;2023-01-29T07:28:09;0.57;;;0.57;;
38683;SDS011;24910;53.248;-6.134;2023-01-29T07:30:38;1.08;;;0.80;;
38683;SDS011;24910;53.248;-6.134;2023-01-29T07:33:09;1.80;;;0.70;;
38683;SDS011;24910;53.248;-6.134;2023-01-29T07:38:08;1.75;;;0.85;;
38683;SDS011;24910;53.248;-6.134;2023-01-29T07:40:38;2.90;;;1.17;;
38683;SDS011;24910;53.248;-6.134;2023-01-29T07:43:08;1.75;;;1.08;;
38683;SDS011;24910;53.248;-6.134;2023-01-29T07:45:38;0.70;;;0.70;;
38683;SDS011;24910;53.248;-6.134;2023-01-29T07:48:09;0.70;;;0.65;;
38683;SDS011;24910;53.248;-6.134;2023-01-29T07:50:41;0.88;;;0.85;;
38683;SDS011;24910;53.248;-6.134;2023-01-29T07:53:11;1.58;;;0.80;;
38683;SDS011;24910;53.248;-6.134;2023-01-29T07:55:42;0.82;;;0.82;;
38683;SDS011;24910;53.248;-6.134;2023-01-29T07:58:12;0.63;;;0.57;;
38683;SDS011;24910;53.248;-6.134;2023-01-29T08:00:41;0.50;;;0.50;;
38683;SDS011;24910;53.248;-6.134;2023-01-29T08:03:12;0.93;;;0.40;;
38683;SDS011;24910;53.248;-6.134;2023-01-29T08:05:43;0.50;;;0.50;;
38683;SDS011;24910;53.248;-6.134;2023-01-29T08:08:13;1.48;;;0.52;;
38683;SDS011;24910;53.248;-6.134;2023-01-29T08:10:42;0.30;;;0.30;;
38683;SDS011;24910;53.248;-6.134;2023-01-29T08:13:11;0.45;;;0.45;;
38683;SDS011;24910;53.248;-6.134;2023-01-29T08:15:41;0.40;;;0.40;;
38683;SDS011;24910;53.248;-6.134;2023-01-29T08:20:41;0.57;;;0.40;;
38683;SDS011;24910;53.248;-6.134;2023-01-29T08:23:11;0.93;;;0.40;;
38683;SDS011;24910;53.248;-6.134;2023-01-29T08:25:41;1.50;;;0.68;;
38683;SDS011;24910;53.248;-6.134;2023-01-29T08:28:11;1.88;;;0.63;;
38683;SDS011;24910;53.248;-6.134;2023-01-29T08:30:40;0.88;;;0.70;;
38683;SDS011;24910;53.248;-6.134;2023-01-29T08:33:10;1.15;;;0.70;;
38683;SDS011;24910;53.248;-6.134;2023-01-29T08:35:40;0.82;;;0.70;;
38683;SDS011;24910;53.248;-6.134;2023-01-29T08:38:09;0.82;;;0.60;;
38683;SDS011;24910;53.248;-6.134;2023-01-29T08:40:38;1.15;;;1.00;;
38683;SDS011;24910;53.248;-6.134;2023-01-29T08:43:09;1.08;;;0.95;;
38683;SDS011;24910;53.248;-6.134;2023-01-29T08:45:40;0.95;;;0.88;;
38683;SDS011;24910;53.248;-6.134;2023-01-29T08:48:10;1.27;;;1.00;;
38683;SDS011;24910;53.248;-6.134;2023-01-29T08:50:41;2.30;;;1.27;;
38683;SDS011;24910;53.248;-6.134;2023-01-29T08:53:10;3.70;;;1.30;;
38683;SDS011;24910;53.248;-6.134;2023-01-29T08:55:39;2.30;;;1.58;;
38683;SDS011;24910;53.248;-6.134;2023-01-29T08:58:09;5.05;;;1.80;;
38683;SDS011;24910;53.248;-6.134;2023-01-29T09:00:39;2.27;;;1.73;;
38683;SDS011;24910;53.248;-6.134;2023-01-29T09:03:07;5.03;;;1.75;;
38683;SDS011;24910;53.248;-6.134;2023-01-29T09:05:37;2.78;;;1.60;;
38683;SDS011;24910;53.248;-6.134;2023-01-29T09:08:08;2.08;;;1.38;;
38683;SDS011;24910;53.248;-6.134;2023-01-29T09:10:37;3.20;;;1.30;;
38683;SDS011;24910;53.248;-6.134;2023-01-29T09:13:06;1.23;;;1.08;;
38683;SDS011;24910;53.248;-6.134;2023-01-29T09:15:35;1.95;;;0.70;;
38683;SDS011;24910;53.248;-6.134;2023-01-29T09:18:05;1.17;;;0.70;;
38683;SDS011;24910;53.248;-6.134;2023-01-29T09:20:34;0.73;;;0.60;;
38683;SDS011;24910;53.248;-6.134;2023-01-29T09:23:04;2.70;;;0.82;;
38683;SDS011;24910;53.248;-6.134;2023-01-29T09:25:36;2.42;;;0.70;;
38683;SDS011;24910;53.248;-6.134;2023-01-29T09:28:05;0.80;;;0.50;;
38683;SDS011;24910;53.248;-6.134;2023-01-29T09:30:34;1.95;;;0.60;;
38683;SDS011;24910;53.248;-6.134;2023-01-29T09:33:04;0.70;;;0.40;;
38683;SDS011;24910;53.248;-6.134;2023-01-29T09:35:34;0.45;;;0.40;;
38683;SDS011;24910;53.248;-6.134;2023-01-29T09:38:04;0.50;;;0.35;;
38683;SDS011;24910;53.248;-6.134;2023-01-29T09:40:37;1.95;;;0.47;;
38683;SDS011;24910;53.248;-6.134;2023-01-29T09:43:11;0.70;;;0.50;;
38683;SDS011;24910;53.248;-6.134;2023-01-29T09:45:49;2.25;;;0.73;;
38683;SDS011;24910;53.248;-6.134;2023-01-29T09:48:22;1.98;;;1.30;;
38683;SDS011;24910;53.248;-6.134;2023-01-29T09:50:55;3.35;;;1.60;;
38683;SDS011;24910;53.248;-6.134;2023-01-29T09:53:28;4.85;;;1.92;;
38683;SDS011;24910;53.248;-6.134;2023-01-29T09:56:04;3.08;;;1.90;;
38683;SDS011;24910;53.248;-6.134;2023-01-29T09:58:39;2.38;;;1.00;;
38683;SDS011;24910;53.248;-6.134;2023-01-29T10:01:11;1.23;;;0.70;;
38683;SDS011;24910;53.248;-6.134;2023-01-29T10:06:49;0.85;;;0.40;;
38683;SDS011;24910;53.248;-6.134;2023-01-29T10:09:32;0.30;;;0.30;;
38683;SDS011;24910;53.248;-6.134;2023-01-29T10:12:27;0.38;;;0.38;;
38683;SDS011;24910;53.248;-6.134;2023-01-29T10:15:17;0.30;;;0.30;;
38683;SDS011;24910;53.248;-6.134;2023-01-29T10:17:59;0.25;;;0.25;;
38683;SDS011;24910;53.248;-6.134;2023-01-29T10:20:46;0.68;;;0.30;;
38683;SDS011;24910;53.248;-6.134;2023-01-29T10:23:23;0.75;;;0.35;;
38683;SDS011;24910;53.248;-6.134;2023-01-29T10:25:55;0.25;;;0.25;;
38683;SDS011;24910;53.248;-6.134;2023-01-29T10:28:27;0.85;;;0.50;;
38683;SDS011;24910;53.248;-6.134;2023-01-29T10:31:02;1.58;;;0.40;;
38683;SDS011;24910;53.248;-6.134;2023-01-29T10:33:36;0.40;;;0.40;;
38683;SDS011;24910;53.248;-6.134;2023-01-29T10:36:27;0.45;;;0.43;;
38683;SDS011;24910;53.248;-6.134;2023-01-29T10:39:03;0.50;;;0.50;;
38683;SDS011;24910;53.248;-6.134;2023-01-29T10:41:41;0.77;;;0.30;;
38683;SDS011;24910;53.248;-6.134;2023-01-29T10:44:28;0.68;;;0.50;;
38683;SDS011;24910;53.248;-6.134;2023-01-29T10:50:18;0.63;;;0.35;;
38683;SDS011;24910;53.248;-6.134;2023-01-29T10:53:01;0.73;;;0.43;;
38683;SDS011;24910;53.248;-6.134;2023-01-29T10:55:45;0.55;;;0.40;;
38683;SDS011;24910;53.248;-6.134;2023-01-29T10:58:26;0.65;;;0.30;;
38683;SDS011;24910;53.248;-6.134;2023-01-29T11:01:02;0.40;;;0.40;;
38683;SDS011;24910;53.248;-6.134;2023-01-29T11:03:32;0.93;;;0.30;;
38683;SDS011;24910;53.248;-6.134;2023-01-29T11:06:03;0.30;;;0.30;;
38683;SDS011;24910;53.248;-6.134;2023-01-29T11:08:41;0.82;;;0.60;;
38683;SDS011;24910;53.248;-6.134;2023-01-29T11:11:16;0.40;;;0.40;;
38683;SDS011;24910;53.248;-6.134;2023-01-29T11:13:49;1.40;;;0.40;;
38683;SDS011;24910;53.248;-6.134;2023-01-29T11:16:26;1.17;;;0.60;;
38683;SDS011;24910;53.248;-6.134;2023-01-29T11:18:59;0.52;;;0.40;;
38683;SDS011;24910;53.248;-6.134;2023-01-29T11:21:29;1.17;;;0.40;;
38683;SDS011;24910;53.248;-6.134;2023-01-29T11:24:04;0.65;;;0.52;;
38683;SDS011;24910;53.248;-6.134;2023-01-29T11:26:36;1.00;;;0.30;;
38683;SDS011;24910;53.248;-6.134;2023-01-29T11:32:10;1.27;;;0.50;;
38683;SDS011;24910;53.248;-6.134;2023-01-29T11:34:58;0.75;;;0.40;;
38683;SDS011;24910;53.248;-6.134;2023-01-29T11:37:32;1.85;;;0.60;;
38683;SDS011;24910;53.248;-6.134;2023-01-29T11:43:10;1.05;;;0.50;;
38683;SDS011;24910;53.248;-6.134;2023-01-29T11:45:45;0.50;;;0.50;;
38683;SDS011;24910;53.248;-6.134;2023-01-29T11:48:17;1.75;;;0.77;;
38683;SDS011;24910;53.248;-6.134;2023-01-29T11:50:50;0.60;;;0.60;;
38683;SDS011;24910;53.248;-6.134;2023-01-29T11:53:31;1.98;;;0.80;;
38683;SDS011;24910;53.248;-6.134;2023-01-29T11:56:03;1.55;;;0.93;;
38683;SDS011;24910;53.248;-6.134;2023-01-29T11:58:43;2.58;;;1.00;;
38683;SDS011;24910;53.248;-6.134;2023-01-29T12:01:13;1.25;;;0.80;;
38683;SDS011;24910;53.248;-6.134;2023-01-29T12:03:47;1.70;;;0.88;;
38683;SDS011;24910;53.248;-6.134;2023-01-29T12:06:20;3.63;;;0.85;;
38683;SDS011;24910;53.248;-6.134;2023-01-29T12:08:54;1.58;;;0.90;;
38683;SDS011;24910;53.248;-6.134;2023-01-29T12:11:26;1.20;;;0.77;;
38683;SDS011;24910;53.248;-6.134;2023-01-29T12:13:58;2.20;;;1.08;;
38683;SDS011;24910;53.248;-6.134;2023-01-29T12:16:29;1.45;;;0.80;;
38683;SDS011;24910;53.248;-6.134;2023-01-29T12:19:08;1.15;;;0.70;;
38683;SDS011;24910;53.248;-6.134;2023-01-29T12:21:42;2.40;;;0.85;;
38683;SDS011;24910;53.248;-6.134;2023-01-29T12:24:19;3.97;;;1.02;;
38683;SDS011;24910;53.248;-6.134;2023-01-29T12:27:00;2.22;;;0.90;;
38683;SDS011;24910;53.248;-6.134;2023-01-29T12:29:36;2.55;;;0.70;;
38683;SDS011;24910;53.248;-6.134;2023-01-29T12:32:15;2.67;;;1.10;;
38683;SDS011;24910;53.248;-6.134;2023-01-29T12:34:56;3.92;;;2.10;;
38683;SDS011;24910;53.248;-6.134;2023-01-29T12:37:34;3.88;;;2.00;;
38683;SDS011;24910;53.248;-6.134;2023-01-29T12:40:11;1.90;;;1.23;;
38683;SDS011;24910;53.248;-6.134;2023-01-29T12:42:43;4.45;;;1.90;;
38683;SDS011;24910;53.248;-6.134;2023-01-29T12:45:16;4.13;;;1.60;;
38683;SDS011;24910;53.248;-6.134;2023-01-29T12:47:47;2.47;;;1.80;;
38683;SDS011;24910;53.248;-6.134;2023-01-29T12:50:21;3.75;;;1.27;;
38683;SDS011;24910;53.248;-6.134;2023-01-29T12:52:55;4.32;;;2.25;;
38683;SDS011;24910;53.248;-6.134;2023-01-29T12:55:28;3.10;;;2.00;;
38683;SDS011;24910;53.248;-6.134;2023-01-29T12:58:04;2.90;;;1.90;;
38683;SDS011;24910;53.248;-6.134;2023-01-29T13:00:41;4.53;;;2.03;;
38683;SDS011;24910;53.248;-6.134;2023-01-29T13:03:13;3.90;;;2.13;;
38683;SDS011;24910;53.248;-6.134;2023-01-29T13:05:50;4.55;;;2.20;;
38683;SDS011;24910;53.248;-6.134;2023-01-29T13:08:22;3.28;;;1.50;;
38683;SDS011;24910;53.248;-6.134;2023-01-29T13:10:55;3.28;;;2.20;;
38683;SDS011;24910;53.248;-6.134;2023-01-29T13:13:27;4.15;;;1.85;;
38683;SDS011;24910;53.248;-6.134;2023-01-29T13:16:00;3.83;;;2.33;;
38683;SDS011;24910;53.248;-6.134;2023-01-29T13:18:36;4.20;;;1.90;;
38683;SDS011;24910;53.248;-6.134;2023-01-29T13:21:12;5.63;;;2.97;;
38683;SDS011;24910;53.248;-6.134;2023-01-29T13:23:45;4.43;;;1.80;;
38683;SDS011;24910;53.248;-6.134;2023-01-29T13:28:45;6.03;;;1.23;;
38683;SDS011;24910;53.248;-6.134;2023-01-29T13:31:21;3.92;;;1.10;;
38683;SDS011;24910;53.248;-6.134;2023-01-29T13:33:57;3.70;;;1.17;;
38683;SDS011;24910;53.248;-6.134;2023-01-29T13:36:33;2.38;;;1.10;;
38683;SDS011;24910;53.248;-6.134;2023-01-29T13:39:05;3.00;;;0.90;;
38683;SDS011;24910;53.248;-6.134;2023-01-29T13:41:36;3.47;;;1.17;;
38683;SDS011;24910;53.248;-6.134;2023-01-29T13:44:16;2.25;;;1.20;;
38683;SDS011;24910;53.248;-6.134;2023-01-29T13:46:49;3.15;;;1.42;;
38683;SDS011;24910;53.248;-6.134;2023-01-29T13:49:28;7.82;;;1.30;;
38683;SDS011;24910;53.248;-6.134;2023-01-29T13:52:15;3.72;;;1.48;;
38683;SDS011;24910;53.248;-6.134;2023-01-29T13:54:52;7.07;;;1.30;;
38683;SDS011;24910;53.248;-6.134;2023-01-29T14:06:37;8.68;;;2.40;;
38683;SDS011;24910;53.248;-6.134;2023-01-29T14:12:34;5.40;;;1.52;;
38683;SDS011;24910;53.248;-6.134;2023-01-29T14:15:16;4.50;;;1.75;;
38683;SDS011;24910;53.248;-6.134;2023-01-29T14:17:58;5.78;;;1.60;;
38683;SDS011;24910;53.248;-6.134;2023-01-29T14:20:34;8.80;;;1.88;;
38683;SDS011;24910;53.248;-6.134;2023-01-29T14:23:25;5.05;;;1.77;;
38683;SDS011;24910;53.248;-6.134;2023-01-29T14:28:57;5.40;;;1.42;;
38683;SDS011;24910;53.248;-6.134;2023-01-29T14:31:39;9.88;;;2.08;;
38683;SDS011;24910;53.248;-6.134;2023-01-29T14:34:21;5.55;;;1.38;;
38683;SDS011;24910;53.248;-6.134;2023-01-29T14:36:54;10.50;;;2.00;;
38683;SDS011;24910;53.248;-6.134;2023-01-29T14:39:31;4.13;;;1.30;;
38683;SDS011;24910;53.248;-6.134;2023-01-29T14:42:05;7.05;;;1.75;;
38683;SDS011;24910;53.248;-6.134;2023-01-29T14:44:52;7.20;;;1.80;;
38683;SDS011;24910;53.248;-6.134;2023-01-29T14:53:22;3.05;;;1.42;;
38683;SDS011;24910;53.248;-6.134;2023-01-29T14:55:58;4.50;;;1.67;;
38683;SDS011;24910;53.248;-6.134;2023-01-29T14:58:33;6.85;;;1.70;;
38683;SDS011;24910;53.248;-6.134;2023-01-29T15:01:16;6.40;;;1.83;;
38683;SDS011;24910;53.248;-6.134;2023-01-29T15:03:50;7.30;;;1.95;;
38683;SDS011;24910;53.248;-6.134;2023-01-29T15:08:54;6.25;;;1.70;;
38683;SDS011;24910;53.248;-6.134;2023-01-29T15:11:33;8.45;;;2.00;;
38683;SDS011;24910;53.248;-6.134;2023-01-29T15:14:20;5.85;;;1.80;;
38683;SDS011;24910;53.248;-6.134;2023-01-29T15:19:46;9.55;;;2.05;;
38683;SDS011;24910;53.248;-6.134;2023-01-29T15:22:17;12.85;;;2.13;;
38683;SDS011;24910;53.248;-6.134;2023-01-29T15:25:00;12.45;;;2.55;;
38683;SDS011;24910;53.248;-6.134;2023-01-29T15:27:32;8.30;;;2.28;;
38683;SDS011;24910;53.248;-6.134;2023-01-29T15:30:02;11.85;;;2.47;;
38683;SDS011;24910;53.248;-6.134;2023-01-29T15:32:35;9.48;;;2.30;;
38683;SDS011;24910;53.248;-6.134;2023-01-29T15:35:07;9.27;;;2.08;;
38683;SDS011;24910;53.248;-6.134;2023-01-29T15:37:38;7.47;;;2.00;;
38683;SDS011;24910;53.248;-6.134;2023-01-29T15:40:11;5.97;;;1.80;;
38683;SDS011;24910;53.248;-6.134;2023-01-29T15:42:44;6.07;;;2.22;;
38683;SDS011;24910;53.248;-6.134;2023-01-29T15:45:21;9.45;;;1.92;;
38683;SDS011;24910;53.248;-6.134;2023-01-29T15:47:56;10.88;;;1.90;;
38683;SDS011;24910;53.248;-6.134;2023-01-29T15:50:29;6.88;;;1.88;;
38683;SDS011;24910;53.248;-6.134;2023-01-29T15:55:30;7.00;;;1.38;;
38683;SDS011;24910;53.248;-6.134;2023-01-29T15:58:00;8.23;;;1.98;;
38683;SDS011;24910;53.248;-6.134;2023-01-29T16:00:29;7.90;;;1.40;;
38683;SDS011;24910;53.248;-6.134;2023-01-29T16:03:03;10.45;;;1.70;;
38683;SDS011;24910;53.248;-6.134;2023-01-29T16:05:41;7.22;;;1.33;;